Edgewood, New York
Current Conditions -  °F | °C
As of 5:56 PM on Saturday 22 Nov 2014 (Local Time) from KISP Reporting Station
Broken Clouds Broken Clouds  
Wind Chill:   Ceiling: 8000
Heat Index:   Visibility: 10mi
Dew Point: -6°   Wind: 10mph
Humidity: 42%   Direction: 240°WSW
Pressure: 30.24"   Gusts: NA
Location:  40.7837°N, 73.252°W
Report Text: KISP 222256Z 24009KT 10SM SCT048 BKN080 BKN100 06/M06 A3024 RMK AO2 SLP239 T00611061
Loading
Personal Weather Stations






























Interactive Weather Map New forecast layout! Learn more

10-Day Weather Forecast

Advertisements
Track Severe Weather on mobile